TimeCDT,TemperatureF,Dew PointF,Humidity,Sea Level PressureIn,VisibilityMPH,Wind Direction,Wind SpeedMPH,Gust SpeedMPH,PrecipitationIn,Events,Conditions,WindDirDegrees,DateUTC
12:53 AM,66.9,24.1,20,29.90,10.0,SW,12.7,-,N/A,,Clear,220,2011-10-21 05:53:00
1:53 AM,66.0,25.0,21,29.90,10.0,SSW,12.7,-,N/A,,Clear,210,2011-10-21 06:53:00
2:53 AM,61.0,26.1,26,29.92,10.0,WSW,6.9,-,N/A,,Clear,250,2011-10-21 07:53:00
3:53 AM,59.0,26.1,28,29.93,10.0,WSW,4.6,-,N/A,,Clear,250,2011-10-21 08:53:00
4:53 AM,59.0,27.0,29,29.93,10.0,South,9.2,-,N/A,,Clear,190,2011-10-21 09:53:00
5:53 AM,64.9,27.0,24,29.93,10.0,SW,15.0,-,N/A,,Clear,230,2011-10-21 10:53:00
7:53 AM,62.1,28.0,28,29.99,10.0,SW,12.7,-,N/A,,Clear,220,2011-10-21 12:53:00
8:53 AM,66.0,28.0,24,30.00,10.0,SW,11.5,-,N/A,,Clear,220,2011-10-21 13:53:00
10:53 AM,80.1,30.0,16,30.01,10.0,NNW,8.1,-,N/A,,Clear,330,2011-10-21 15:53:00
11:53 AM,82.9,27.0,13,30.02,10.0,North,6.9,-,N/A,,Clear,350,2011-10-21 16:53:00
12:53 PM,84.9,25.0,11,30.00,10.0,NNW,8.1,-,N/A,,Clear,340,2011-10-21 17:53:00
1:53 PM,87.1,24.1,10,29.97,10.0,NW,9.2,-,N/A,,Clear,320,2011-10-21 18:53:00
2:53 PM,90.0,21.0,8,29.94,10.0,NW,5.8,25.3,N/A,,Clear,320,2011-10-21 19:53:00
3:53 PM,91.0,25.0,9,29.92,10.0,NNW,6.9,-,N/A,,Clear,330,2011-10-21 20:53:00
4:53 PM,90.0,26.1,10,29.91,10.0,NW,11.5,-,N/A,,Clear,310,2011-10-21 21:53:00
5:53 PM,90.0,26.1,10,29.89,10.0,WNW,6.9,-,N/A,,Clear,300,2011-10-21 22:53:00
6:53 PM,84.9,27.0,12,29.91,10.0,West,4.6,-,N/A,,Clear,280,2011-10-21 23:53:00
7:53 PM,78.1,27.0,15,29.93,10.0,Calm,Calm,-,N/A,,Clear,0,2011-10-22 00:53:00
8:53 PM,75.9,33.1,21,29.94,10.0,SSE,9.2,-,N/A,,Clear,160,2011-10-22 01:53:00
9:53 PM,72.0,37.0,28,29.94,10.0,SSE,10.4,-,N/A,,Clear,160,2011-10-22 02:53:00
10:53 PM,70.0,39.9,33,29.94,10.0,SSE,11.5,-,N/A,,Clear,160,2011-10-22 03:53:00
11:53 PM,69.1,43.0,39,29.94,10.0,South,11.5,-,N/A,,Clear,170,2011-10-22 04:53:00